Time;durP1;ratioP1;P1;durP2;ratioP2;P2;SDS_P1;SDS_P2;PMS_P1;PMS_P2;Temp;Humidity;BMP_temperature;BMP_pressure;BME280_temperature;BME280_humidity;BME280_pressure;Samples;Min_cycle;Max_cycle;Signal;HPM_P1;HPM_P2
2023/04/20 00:00:32;;;;;;;5.23;4.83;;;8.00;46.30;;;;;;20597;6816;277261;-76
2023/04/20 00:02:58;;;;;;;4.30;4.00;;;8.20;45.50;;;;;;20805;6816;117163;-76
2023/04/20 00:05:24;;;;;;;5.00;4.70;;;8.10;45.40;;;;;;20604;6816;311816;-76
2023/04/20 00:07:50;;;;;;;4.93;4.53;;;8.10;45.80;;;;;;20584;6816;307114;-76
2023/04/20 00:10:15;;;;;;;4.87;4.47;;;8.20;44.40;;;;;;20609;6816;306145;-76
2023/04/20 00:12:41;;;;;;;4.70;4.40;;;8.40;44.10;;;;;;20823;6814;117074;-75
2023/04/20 00:15:07;;;;;;;4.87;4.47;;;8.10;44.60;;;;;;20606;6815;336991;-75
2023/04/20 00:17:35;;;;;;;4.53;4.20;;;7.90;45.40;;;;;;20791;6816;117578;-76
2023/04/20 00:19:59;;;;;;;4.72;4.43;;;7.90;45.40;;;;;;20591;6816;308981;-76
2023/04/20 00:22:27;;;;;;;4.70;4.40;;;8.00;44.90;;;;;;20597;6816;337178;-76
2023/04/20 00:24:51;;;;;;;4.30;4.00;;;8.20;44.90;;;;;;20808;6816;117263;-76
2023/04/20 00:27:17;;;;;;;4.70;4.40;;;8.00;45.80;;;;;;20813;6816;116889;-77
2023/04/20 00:29:43;;;;;;;4.05;3.75;;;7.70;46.70;;;;;;20767;6816;127304;-75
2023/04/20 00:32:09;;;;;;;5.10;4.80;;;7.50;46.30;;;;;;20598;6816;277444;-75
2023/04/20 00:34:34;;;;;;;4.60;4.30;;;7.50;46.30;;;;;;20808;6816;117551;-76
2023/04/20 00:37:00;;;;;;;4.40;4.10;;;7.40;46.70;;;;;;20804;6816;123723;-76
2023/04/20 00:39:26;;;;;;;5.17;4.77;;;7.20;47.40;;;;;;20600;6816;278025;-76
2023/04/20 00:41:51;;;;;;;5.30;4.90;;;7.40;46.60;;;;;;20566;6816;307526;-76
2023/04/20 00:44:18;;;;;;;4.75;4.30;;;7.60;46.40;;;;;;20808;6816;117500;-76
2023/04/20 00:46:43;;;;;;;4.60;4.20;;;7.60;46.30;;;;;;20808;6816;117246;-76
2023/04/20 00:49:09;;;;;;;5.20;4.70;;;7.30;46.90;;;;;;20608;6816;289401;-76
2023/04/20 00:51:34;;;;;;;5.30;4.95;;;7.40;45.70;;;;;;20581;6816;306564;-76
2023/04/20 00:54:02;;;;;;;4.68;4.37;;;7.50;45.90;;;;;;20825;6816;117241;-76
2023/04/20 00:56:27;;;;;;;4.57;4.20;;;7.50;45.90;;;;;;20823;6816;117597;-76
2023/04/20 00:58:53;;;;;;;4.85;4.43;;;7.30;47.10;;;;;;20813;6816;116977;-76
2023/04/20 01:01:19;;;;;;;5.10;4.70;;;6.90;49.00;;;;;;20811;6816;116911;-76
2023/04/20 01:03:45;;;;;;;4.60;4.30;;;6.90;49.00;;;;;;20786;6816;120855;-77
2023/04/20 01:06:10;;;;;;;4.50;4.20;;;6.80;49.60;;;;;;20807;6816;121127;-76
2023/04/20 01:08:36;;;;;;;4.47;4.10;;;6.70;50.00;;;;;;20805;6816;117059;-76
2023/04/20 01:11:02;;;;;;;5.33;4.93;;;6.90;50.00;;;;;;20566;6816;307096;-76
2023/04/20 01:13:28;;;;;;;6.60;6.10;;;6.90;50.00;;;;;;20580;6816;310844;-76
2023/04/20 01:15:54;;;;;;;6.17;5.70;;;7.30;49.40;;;;;;20790;6816;117521;-76
2023/04/20 01:18:19;;;;;;;7.03;6.47;;;7.30;49.40;;;;;;20590;6816;311354;-77
2023/04/20 01:20:46;;;;;;;5.75;5.43;;;7.20;49.40;;;;;;20805;6816;116995;-76
2023/04/20 01:23:12;;;;;;;6.17;5.53;;;7.20;49.40;;;;;;20806;6816;123266;-76
2023/04/20 01:25:39;;;;;;;6.07;5.67;;;6.70;51.10;;;;;;20791;6814;117428;-76
2023/04/20 01:28:04;;;;;;;5.40;5.10;;;6.70;51.10;;;;;;20812;6815;117022;-76
2023/04/20 01:30:30;;;;;;;5.65;5.25;;;6.30;51.70;;;;;;20808;6816;117550;-76
2023/04/20 01:32:58;;;;;;;5.77;5.37;;;6.30;51.70;;;;;;20814;6816;116958;-76
2023/04/20 01:35:24;;;;;;;7.05;6.55;;;6.30;51.50;;;;;;20601;6816;304409;-76
2023/04/20 01:37:50;;;;;;;5.53;5.13;;;6.30;51.40;;;;;;20797;6816;117637;-76
2023/04/20 01:40:16;;;;;;;5.70;5.28;;;6.40;51.60;;;;;;20820;6816;117396;-75
2023/04/20 01:42:42;;;;;;;6.30;5.82;;;6.30;52.20;;;;;;20591;6816;336742;-76
2023/04/20 01:45:08;;;;;;;6.10;5.70;;;6.50;51.80;;;;;;20593;6816;306686;-77
2023/04/20 01:47:34;;;;;;;5.40;5.10;;;6.80;51.50;;;;;;20789;6816;117446;-75
2023/04/20 01:50:00;;;;;;;6.00;5.60;;;6.80;51.40;;;;;;20593;6816;337406;-75
2023/04/20 01:52:27;;;;;;;5.55;4.87;;;6.90;50.20;;;;;;20807;6816;120776;-76
2023/04/20 01:54:52;;;;;;;5.80;5.40;;;6.80;50.30;;;;;;20597;6816;306673;-77
2023/04/20 01:57:18;;;;;;;5.43;5.03;;;6.90;49.20;;;;;;20806;6816;116631;-75
2023/04/20 01:59:43;;;;;;;6.00;5.60;;;6.80;49.80;;;;;;20579;6816;305992;-75
2023/04/20 02:02:09;;;;;;;5.63;5.33;;;6.90;49.70;;;;;;20600;6816;281250;-76
2023/04/20 02:04:35;;;;;;;5.30;5.00;;;7.20;50.00;;;;;;20810;6816;117029;-75
2023/04/20 02:07:00;;;;;;;6.00;5.60;;;7.10;50.40;;;;;;20591;6816;335269;-75
2023/04/20 02:09:26;;;;;;;6.25;5.70;;;7.10;50.40;;;;;;20595;6816;306774;-75
2023/04/20 02:11:51;;;;;;;5.90;5.40;;;7.30;48.60;;;;;;20578;6816;305801;-77
2023/04/20 02:14:18;;;;;;;5.65;4.93;;;7.30;49.40;;;;;;20820;6816;117206;-77
2023/04/20 02:16:43;;;;;;;5.23;4.83;;;7.30;49.20;;;;;;20816;6816;117288;-77
2023/04/20 02:19:09;;;;;;;5.05;4.70;;;6.90;50.00;;;;;;20821;6816;116949;-76
2023/04/20 02:21:34;;;;;;;5.03;4.20;;;6.60;51.50;;;;;;20798;6816;117485;-77
2023/04/20 02:24:02;;;;;;;5.57;5.18;;;6.20;52.00;;;;;;20823;6816;119723;-77
2023/04/20 02:26:27;;;;;;;5.00;4.60;;;6.10;51.90;;;;;;20814;6816;117327;-77
2023/04/20 02:28:53;;;;;;;6.22;5.72;;;5.90;52.20;;;;;;20613;6816;276210;-77
2023/04/20 02:31:19;;;;;;;5.25;4.85;;;6.10;50.90;;;;;;20824;6816;117140;-77
2023/04/20 02:33:46;;;;;;;4.97;4.62;;;6.20;51.10;;;;;;20807;6816;117041;-77
2023/04/20 02:36:10;;;;;;;6.40;5.93;;;6.00;51.50;;;;;;20589;6814;336174;-79
2023/04/20 02:38:36;;;;;;;6.57;6.07;;;6.20;50.40;;;;;;20610;6815;307980;-77
2023/04/20 02:41:02;;;;;;;6.20;5.80;;;6.90;48.70;;;;;;20601;6816;277750;-77
2023/04/20 02:43:27;;;;;;;5.93;5.53;;;6.80;48.60;;;;;;20602;6816;340341;-77
2023/04/20 02:45:53;;;;;;;5.70;5.30;;;7.10;48.20;;;;;;20798;6816;117320;-77
2023/04/20 02:48:19;;;;;;;5.10;4.70;;;6.60;49.90;;;;;;20822;6816;118445;-76
2023/04/20 02:50:45;;;;;;;5.53;5.17;;;6.60;49.90;;;;;;20617;6816;309384;-76
2023/04/20 02:53:10;;;;;;;5.65;5.18;;;6.70;49.10;;;;;;20649;6816;301072;-77
2023/04/20 02:55:36;;;;;;;5.10;4.80;;;7.00;47.90;;;;;;20816;6816;117436;-77
2023/04/20 02:58:01;;;;;;;5.68;5.20;;;6.80;48.30;;;;;;20601;6812;329592;-78
2023/04/20 03:00:27;;;;;;;5.60;5.20;;;6.90;48.10;;;;;;20846;6812;117609;-76
2023/04/20 03:02:53;;;;;;;5.63;5.23;;;6.80;48.90;;;;;;20841;6812;116937;-77
2023/04/20 03:05:18;;;;;;;136.97;117.50;;;6.50;49.80;;;;;;20629;6812;281237;-77
2023/04/20 03:07:44;;;;;;;7.20;6.60;;;6.80;48.90;;;;;;20605;6812;306008;-77
2023/04/20 03:10:10;;;;;;;6.45;5.95;;;6.80;48.60;;;;;;20621;6812;306799;-77
2023/04/20 03:12:36;;;;;;;6.43;6.03;;;7.10;47.80;;;;;;20629;6812;336706;-77
2023/04/20 03:15:03;;;;;;;5.60;5.10;;;7.00;49.20;;;;;;20843;6812;117012;-77
2023/04/20 03:17:27;;;;;;;5.60;5.10;;;7.00;49.20;;;;;;20829;6812;117887;-76
2023/04/20 03:19:55;;;;;;;6.28;5.80;;;6.80;50.10;;;;;;20614;6812;282444;-76
2023/04/20 03:22:19;;;;;;;6.40;5.90;;;6.80;50.10;;;;;;20603;6812;310213;-77
2023/04/20 03:24:46;;;;;;;6.47;6.07;;;7.10;49.30;;;;;;20840;6812;116048;-77
2023/04/20 03:27:12;;;;;;;6.00;5.40;;;7.00;49.70;;;;;;20837;6812;117406;-77
2023/04/20 03:29:37;;;;;;;5.83;5.33;;;6.80;50.60;;;;;;20817;6812;116960;-78
2023/04/20 03:32:04;;;;;;;7.70;7.05;;;6.70;51.10;;;;;;20621;6812;306912;-77
2023/04/20 03:34:30;;;;;;;6.30;5.90;;;6.70;51.10;;;;;;20831;6812;116857;-77
2023/04/20 03:36:55;;;;;;;8.23;6.93;;;6.80;51.50;;;;;;20621;6812;304887;-77
2023/04/20 03:39:20;;;;;;;5.97;5.57;;;6.90;51.10;;;;;;20830;6812;117046;-77
2023/04/20 03:41:46;;;;;;;5.53;5.05;;;6.90;50.50;;;;;;20800;6812;116986;-77
2023/04/20 03:44:14;;;;;;;5.97;5.57;;;6.70;50.90;;;;;;20630;6812;276464;-77
2023/04/20 03:46:39;;;;;;;6.20;5.63;;;6.90;49.60;;;;;;20828;6812;117290;-77
2023/04/20 03:49:04;;;;;;;10.80;9.70;;;6.80;50.10;;;;;;20600;6811;307160;-77
2023/04/20 03:51:31;;;;;;;8.35;7.57;;;6.90;50.20;;;;;;20800;6812;117105;-77
2023/04/20 03:53:56;;;;;;;7.32;6.80;;;6.80;50.50;;;;;;20801;6812;117865;-76
2023/04/20 03:56:23;;;;;;;8.43;7.87;;;6.60;51.80;;;;;;20606;6812;276970;-77
2023/04/20 03:58:48;;;;;;;8.10;7.50;;;6.60;51.80;;;;;;20600;6812;310884;-77
2023/04/20 04:01:14;;;;;;;7.95;7.35;;;6.90;50.80;;;;;;20611;6812;277470;-77
2023/04/20 04:03:39;;;;;;;6.83;6.23;;;7.10;49.50;;;;;;20804;6812;117382;-77
2023/04/20 04:06:06;;;;;;;6.77;6.27;;;6.90;49.40;;;;;;20596;6812;281431;-77
2023/04/20 04:08:31;;;;;;;6.80;6.10;;;6.90;48.70;;;;;;20584;6812;326084;-77
2023/04/20 04:10:57;;;;;;;5.97;5.47;;;7.10;47.90;;;;;;20822;6812;122640;-77
2023/04/20 04:13:23;;;;;;;6.60;6.10;;;6.80;48.30;;;;;;20605;6812;303064;-77
2023/04/20 04:15:49;;;;;;;7.10;6.40;;;7.00;47.80;;;;;;20579;6812;277985;-77
2023/04/20 04:18:15;;;;;;;5.87;5.33;;;7.00;47.80;;;;;;20817;6812;118135;-77
2023/04/20 04:20:40;;;;;;;5.30;4.80;;;6.90;48.50;;;;;;20804;6812;116844;-74
2023/04/20 04:23:06;;;;;;;7.20;5.57;;;6.50;49.90;;;;;;20818;6812;116881;-75
2023/04/20 04:25:32;;;;;;;6.10;5.50;;;6.30;50.40;;;;;;20808;6812;116952;-75
2023/04/20 04:27:57;;;;;;;6.85;6.00;;;6.10;51.00;;;;;;20815;6812;117719;-75
2023/04/20 04:30:23;;;;;;;7.30;6.70;;;5.90;51.60;;;;;;20592;6812;288578;-76
2023/04/20 04:32:49;;;;;;;6.77;6.33;;;6.50;49.20;;;;;;20600;6812;277491;-75
2023/04/20 04:35:16;;;;;;;6.83;6.33;;;6.50;49.20;;;;;;20592;6812;282762;-76
2023/04/20 04:37:42;;;;;;;7.18;6.68;;;6.80;48.20;;;;;;20583;6812;278343;-75
2023/04/20 04:40:08;;;;;;;6.47;5.97;;;7.00;48.10;;;;;;20817;6812;117126;-75
2023/04/20 04:42:34;;;;;;;6.93;6.33;;;6.80;48.30;;;;;;20588;6812;278836;-75
2023/04/20 04:45:01;;;;;;;7.27;6.57;;;6.70;48.20;;;;;;20603;6812;277523;-74
2023/04/20 04:47:28;;;;;;;6.37;5.83;;;6.90;47.70;;;;;;20818;6812;116990;-77
2023/04/20 04:49:52;;;;;;;7.10;6.50;;;6.70;48.30;;;;;;20571;6812;322972;-77
2023/04/20 04:52:17;;;;;;;6.30;5.83;;;6.70;48.10;;;;;;20799;6812;123343;-75
2023/04/20 04:54:44;;;;;;;7.07;6.43;;;6.20;49.30;;;;;;20816;6812;117440;-75
2023/04/20 04:57:09;;;;;;;8.03;5.77;;;6.20;49.30;;;;;;20801;6812;116871;-75
2023/04/20 04:59:37;;;;;;;6.62;6.10;;;6.00;50.10;;;;;;20783;6810;117411;-75
2023/04/20 05:02:04;;;;;;;6.30;5.90;;;5.60;51.20;;;;;;20797;6812;123450;-75
2023/04/20 05:04:29;;;;;;;6.17;5.77;;;5.60;51.20;;;;;;20800;6812;116813;-76
2023/04/20 05:06:55;;;;;;;7.43;6.90;;;5.50;51.50;;;;;;20592;6812;306443;-76
2023/04/20 05:09:20;;;;;;;8.18;7.47;;;5.70;51.10;;;;;;20587;6812;306446;-76
2023/04/20 05:11:46;;;;;;;9.60;7.32;;;6.10;49.90;;;;;;20778;6812;116939;-80
2023/04/20 05:14:11;;;;;;;7.63;6.97;;;6.10;50.10;;;;;;20808;6812;117326;-76
2023/04/20 05:16:39;;;;;;;8.15;7.35;;;5.70;50.70;;;;;;20799;6812;119467;-75
2023/04/20 05:19:05;;;;;;;8.73;7.50;;;5.70;51.00;;;;;;20811;6812;117345;-74
2023/04/20 05:21:31;;;;;;;8.50;7.70;;;5.40;51.60;;;;;;20822;6812;117273;-75
2023/04/20 05:23:56;;;;;;;9.53;8.80;;;5.40;51.60;;;;;;20588;6812;306922;-75
2023/04/20 05:26:22;;;;;;;10.20;9.18;;;5.60;51.20;;;;;;20818;6812;117227;-75
2023/04/20 05:28:48;;;;;;;10.93;9.83;;;5.70;51.40;;;;;;20815;6812;117317;-74
2023/04/20 05:31:14;;;;;;;8.85;8.05;;;5.50;52.50;;;;;;20799;6812;117013;-74
2023/04/20 05:33:40;;;;;;;10.13;9.33;;;5.50;52.40;;;;;;20570;6812;281352;-74
2023/04/20 05:36:05;;;;;;;9.48;8.77;;;5.80;51.60;;;;;;20605;6812;335910;-75
2023/04/20 05:38:32;;;;;;;8.10;7.60;;;6.60;49.30;;;;;;20571;6812;312767;-72
2023/04/20 05:40:57;;;;;;;7.67;7.00;;;6.60;49.30;;;;;;20823;6812;116948;-73
2023/04/20 05:43:23;;;;;;;7.43;6.72;;;6.60;49.50;;;;;;20825;6812;118458;-73
2023/04/20 05:45:48;;;;;;;7.72;7.12;;;6.30;50.10;;;;;;20786;6812;123417;-74
2023/04/20 05:48:15;;;;;;;8.43;7.73;;;6.30;50.40;;;;;;20614;6812;337229;-76
2023/04/20 05:50:41;;;;;;;7.80;7.20;;;6.30;50.40;;;;;;20823;6812;116887;-75
2023/04/20 05:53:06;;;;;;;8.70;8.00;;;6.30;50.50;;;;;;20610;6812;298250;-74
2023/04/20 05:55:32;;;;;;;8.50;7.90;;;6.50;49.70;;;;;;20613;6812;278007;-74
2023/04/20 05:57:57;;;;;;;9.17;7.80;;;6.80;48.90;;;;;;20589;6812;335512;-75
2023/04/20 06:00:23;;;;;;;8.55;7.95;;;7.10;48.40;;;;;;20616;6812;277921;-74
2023/04/20 06:02:48;;;;;;;8.60;7.80;;;7.30;48.20;;;;;;20605;6812;308313;-75
2023/04/20 06:05:14;;;;;;;7.25;6.55;;;7.60;47.50;;;;;;20815;6812;118151;-74
2023/04/20 06:07:39;;;;;;;7.93;7.23;;;7.50;48.60;;;;;;20589;6812;316664;-74
2023/04/20 06:10:07;;;;;;;7.40;6.68;;;7.60;49.30;;;;;;20828;6810;117603;-73
2023/04/20 06:12:32;;;;;;;6.77;6.27;;;7.50;50.30;;;;;;20828;6811;116890;-74
2023/04/20 06:14:58;;;;;;;7.10;6.50;;;7.50;50.30;;;;;;20833;6812;119434;-75
2023/04/20 06:17:24;;;;;;;7.70;7.20;;;7.60;48.70;;;;;;20620;6812;315268;-74
2023/04/20 06:19:49;;;;;;;7.37;6.87;;;7.60;48.70;;;;;;20590;6812;293818;-75
2023/04/20 06:22:15;;;;;;;9.27;7.03;;;7.90;47.60;;;;;;20820;6812;123297;-75
2023/04/20 06:24:41;;;;;;;6.55;6.05;;;8.00;48.40;;;;;;20820;6812;122964;-75
2023/04/20 06:27:06;;;;;;;6.90;6.28;;;7.80;49.00;;;;;;20827;6812;122681;-75
2023/04/20 06:29:32;;;;;;;8.13;7.53;;;7.70;49.80;;;;;;20597;6812;306074;-75
2023/04/20 06:31:58;;;;;;;8.85;8.13;;;8.00;49.90;;;;;;20830;6812;117575;-74
2023/04/20 06:34:23;;;;;;;7.37;6.77;;;8.00;49.90;;;;;;20822;6812;117221;-73
2023/04/20 06:36:49;;;;;;;7.57;6.82;;;8.10;50.60;;;;;;20824;6812;117366;-73
2023/04/20 06:39:15;;;;;;;8.05;6.75;;;8.10;51.20;;;;;;20822;6812;116917;-73
2023/04/20 06:41:40;;;;;;;8.15;7.50;;;8.10;51.30;;;;;;20579;6812;335929;-77
2023/04/20 06:44:06;;;;;;;8.43;7.73;;;8.30;49.30;;;;;;20612;6812;277096;-73
2023/04/20 06:46:31;;;;;;;8.20;7.50;;;8.70;47.20;;;;;;20613;6812;306500;-76
2023/04/20 06:48:58;;;;;;;11.10;8.90;;;8.90;46.20;;;;;;20824;6812;117141;-76
2023/04/20 06:51:23;;;;;;;7.40;6.50;;;8.80;48.40;;;;;;20818;6812;117855;-81
2023/04/20 06:53:49;;;;;;;7.90;7.30;;;8.70;48.30;;;;;;20587;6812;335526;-75
2023/04/20 06:56:15;;;;;;;6.80;6.12;;;8.90;47.70;;;;;;20826;6812;117842;-78
2023/04/20 06:58:41;;;;;;;6.63;6.03;;;8.90;47.70;;;;;;20822;6812;118198;-75
2023/04/20 07:01:07;;;;;;;6.43;6.03;;;8.50;48.80;;;;;;20829;6812;119587;-73
2023/04/20 07:03:32;;;;;;;8.03;6.30;;;8.50;48.80;;;;;;20805;6812;117366;-76
2023/04/20 07:09:23;;;;;;;7.57;6.87;;;8.20;49.90;;;;;;20792;6812;122732;-73
2023/04/20 07:11:49;;;;;;;8.30;7.68;;;8.00;50.60;;;;;;20592;6812;276718;-76
2023/04/20 07:14:14;;;;;;;8.68;8.07;;;8.30;50.00;;;;;;20608;6812;310505;-74
2023/04/20 07:16:41;;;;;;;9.50;8.70;;;8.70;48.80;;;;;;20603;6812;335753;-75
2023/04/20 07:19:07;;;;;;;8.37;7.67;;;9.00;48.10;;;;;;20823;6812;117297;-74
2023/04/20 07:21:34;;;;;;;8.83;8.13;;;8.90;48.50;;;;;;20619;6812;277954;-77
2023/04/20 07:24:00;;;;;;;8.03;7.43;;;8.90;48.50;;;;;;20825;6811;117445;-77
2023/04/20 07:26:25;;;;;;;7.83;7.23;;;8.80;48.30;;;;;;20820;6812;116788;-77
2023/04/20 07:28:51;;;;;;;8.67;7.90;;;8.70;49.30;;;;;;20607;6812;306414;-74
2023/04/20 07:31:17;;;;;;;9.73;8.82;;;8.70;48.20;;;;;;20612;6812;306779;-73
2023/04/20 07:33:42;;;;;;;7.63;6.93;;;9.00;47.20;;;;;;20803;6812;117153;-72
2023/04/20 07:36:08;;;;;;;7.17;6.67;;;8.90;47.80;;;;;;20816;6812;118353;-73
2023/04/20 07:38:33;;;;;;;8.85;8.15;;;8.70;48.80;;;;;;20587;6812;335999;-74
2023/04/20 07:41:00;;;;;;;9.37;8.57;;;9.20;47.60;;;;;;20601;6812;312601;-74
2023/04/20 07:43:25;;;;;;;9.20;8.50;;;9.20;47.60;;;;;;20601;6812;340504;-73
2023/04/20 07:45:51;;;;;;;8.07;7.37;;;9.40;46.80;;;;;;20785;6812;119989;-73
2023/04/20 07:48:17;;;;;;;8.13;7.53;;;9.10;49.30;;;;;;20822;6812;117621;-73
2023/04/20 07:50:43;;;;;;;7.90;7.20;;;9.10;48.70;;;;;;20808;6812;121098;-75
2023/04/20 07:53:08;;;;;;;9.60;8.17;;;8.90;49.20;;;;;;20833;6812;118940;-73
2023/04/20 07:55:34;;;;;;;9.70;8.80;;;8.70;49.90;;;;;;20597;6812;309081;-74
2023/04/20 07:57:59;;;;;;;10.57;9.67;;;8.80;48.40;;;;;;20607;6812;306472;-74
2023/04/20 08:00:26;;;;;;;9.43;8.77;;;9.40;47.60;;;;;;20610;6812;277915;-74
2023/04/20 08:02:52;;;;;;;9.40;8.80;;;9.50;47.00;;;;;;20602;6812;306916;-74
2023/04/20 08:05:18;;;;;;;8.80;8.10;;;9.50;47.00;;;;;;20819;6812;120858;-74
2023/04/20 08:07:43;;;;;;;8.50;7.80;;;9.40;47.80;;;;;;20794;6812;116980;-74
2023/04/20 08:10:09;;;;;;;10.67;9.83;;;9.00;48.60;;;;;;20609;6812;307176;-72
2023/04/20 08:12:35;;;;;;;8.37;7.57;;;9.10;48.10;;;;;;20811;6812;117134;-76
2023/04/20 08:15:03;;;;;;;12.40;11.27;;;9.00;48.90;;;;;;20607;6812;336916;-74
2023/04/20 08:17:26;;;;;;;9.43;8.70;;;9.10;48.30;;;;;;20808;6812;122875;-73
2023/04/20 08:19:52;;;;;;;9.87;9.13;;;9.10;49.30;;;;;;20567;6812;306759;-73
2023/04/20 08:22:17;;;;;;;10.73;9.93;;;9.10;48.70;;;;;;20610;6812;344370;-74
2023/04/20 08:24:43;;;;;;;10.57;9.67;;;9.30;48.50;;;;;;20605;6812;284193;-74
2023/04/20 08:27:09;;;;;;;9.15;8.45;;;9.30;47.80;;;;;;20818;6812;117223;-74
2023/04/20 08:29:36;;;;;;;9.13;8.33;;;9.00;48.80;;;;;;20779;6812;126455;-76
2023/04/20 08:32:01;;;;;;;10.60;9.70;;;8.90;48.70;;;;;;20596;6812;306922;-74
2023/04/20 08:34:28;;;;;;;10.23;9.45;;;9.00;50.10;;;;;;20594;6810;336092;-75
2023/04/20 08:36:54;;;;;;;9.93;9.18;;;9.30;49.20;;;;;;20599;6812;311482;-77
2023/04/20 08:39:20;;;;;;;9.60;8.48;;;9.50;48.60;;;;;;20818;6812;116907;-74
2023/04/20 08:41:46;;;;;;;10.93;10.07;;;9.40;49.10;;;;;;20574;6812;335556;-76
2023/04/20 08:44:11;;;;;;;9.95;9.15;;;9.40;48.40;;;;;;20810;6812;117393;-72
2023/04/20 08:46:36;;;;;;;11.00;10.05;;;9.30;49.10;;;;;;20605;6812;311953;-72
2023/04/20 08:49:02;;;;;;;12.20;11.30;;;9.30;48.90;;;;;;20599;6812;294012;-74
2023/04/20 08:51:28;;;;;;;9.60;8.73;;;9.50;49.20;;;;;;20814;6812;117559;-73
2023/04/20 08:53:53;;;;;;;9.32;8.20;;;9.40;49.80;;;;;;20800;6812;117403;-73
2023/04/20 08:56:18;;;;;;;11.50;10.60;;;9.10;50.10;;;;;;20601;6812;336348;-74
2023/04/20 08:58:44;;;;;;;10.50;9.60;;;9.20;49.40;;;;;;20816;6812;117277;-74
2023/04/20 09:01:10;;;;;;;11.60;10.40;;;9.20;49.30;;;;;;20613;6812;306198;-74
2023/04/20 09:03:36;;;;;;;10.65;9.93;;;9.20;49.30;;;;;;20576;6812;321635;-73
2023/04/20 09:06:02;;;;;;;11.30;10.40;;;9.70;47.90;;;;;;20606;6812;324381;-73
2023/04/20 09:08:35;;;;;;;10.17;9.33;;;9.70;47.90;;;;;;20776;6812;117293;-76
2023/04/20 09:11:03;;;;;;;11.68;10.57;;;9.60;48.40;;;;;;20604;6812;309380;-74
2023/04/20 09:13:29;;;;;;;12.57;11.40;;;9.80;47.60;;;;;;20600;6812;337917;-74
2023/04/20 09:15:54;;;;;;;9.83;9.13;;;9.80;47.60;;;;;;20791;6812;117971;-74
2023/04/20 09:18:20;;;;;;;11.20;10.40;;;9.70;48.40;;;;;;20603;6812;306924;-75
2023/04/20 09:20:45;;;;;;;10.13;9.23;;;9.70;48.30;;;;;;20818;6812;121533;-75
2023/04/20 09:23:14;;;;;;;10.98;10.07;;;9.70;49.10;;;;;;20600;6812;340654;-74
2023/04/20 09:25:42;;;;;;;10.27;9.37;;;9.80;49.20;;;;;;20793;6812;118936;-74
2023/04/20 09:28:06;;;;;;;10.97;10.17;;;9.80;49.20;;;;;;20597;6812;306979;-74
2023/04/20 09:30:41;;;;;;;11.60;10.70;;;9.90;48.50;;;;;;20611;6812;306568;-74
2023/04/20 09:33:07;;;;;;;11.37;10.47;;;10.20;46.90;;;;;;20601;6812;306090;-73
2023/04/20 09:35:32;;;;;;;10.10;9.40;;;10.40;46.50;;;;;;20811;6812;117863;-77
2023/04/20 09:37:58;;;;;;;10.50;9.60;;;10.30;47.20;;;;;;20598;6812;336067;-74
2023/04/20 09:40:24;;;;;;;10.45;9.75;;;10.30;46.80;;;;;;20602;6812;307723;-74
2023/04/20 09:42:49;;;;;;;9.30;8.60;;;10.50;46.70;;;;;;20817;6812;118301;-74
2023/04/20 09:45:15;;;;;;;9.07;8.38;;;10.30;47.40;;;;;;20822;6810;117832;-73
2023/04/20 09:47:41;;;;;;;10.73;10.00;;;10.20;49.20;;;;;;20587;6811;281791;-73
2023/04/20 09:50:07;;;;;;;11.30;10.43;;;10.20;48.90;;;;;;20604;6812;306100;-73
2023/04/20 09:52:32;;;;;;;9.80;9.00;;;10.50;48.60;;;;;;20797;6812;117525;-75
2023/04/20 09:54:58;;;;;;;9.70;8.87;;;10.50;48.70;;;;;;20821;6812;117480;-73
2023/04/20 09:57:24;;;;;;;10.70;9.97;;;10.20;49.30;;;;;;20618;6812;307645;-74
2023/04/20 09:59:50;;;;;;;10.10;9.30;;;10.20;49.20;;;;;;20801;6812;117198;-77
2023/04/20 10:02:15;;;;;;;9.98;9.15;;;10.20;49.60;;;;;;20823;6812;120526;-79
2023/04/20 10:04:58;;;;;;;9.93;9.15;;;9.90;51.10;;;;;;20826;6812;117114;-73
2023/04/20 10:07:27;;;;;;;15.87;13.93;;;9.70;51.40;;;;;;20614;6812;277022;-77
2023/04/20 10:10:06;;;;;;;11.53;10.53;;;9.80;52.00;;;;;;20785;6812;117141;-78
2023/04/20 10:12:35;;;;;;;11.10;10.20;;;9.50;53.00;;;;;;20833;6812;117198;-76
2023/04/20 10:14:59;;;;;;;9.83;9.00;;;9.50;53.00;;;;;;20821;6812;117677;-75
2023/04/20 10:17:30;;;;;;;10.48;9.68;;;9.30;53.50;;;;;;20822;6812;116995;-75
2023/04/20 10:19:56;;;;;;;25.97;14.63;;;9.20;54.00;;;;;;20805;6812;119455;-75
2023/04/20 10:22:28;;;;;;;13.40;12.20;;;9.00;54.40;;;;;;20615;6812;278911;-77
2023/04/20 10:24:50;;;;;;;14.63;13.53;;;9.20;54.60;;;;;;20600;6812;304259;-76
2023/04/20 10:27:17;;;;;;;13.32;12.05;;;9.60;54.60;;;;;;20824;6812;119409;-77
2023/04/20 10:29:42;;;;;;;11.83;10.83;;;9.60;54.60;;;;;;20780;6812;117793;-78
2023/04/20 10:32:08;;;;;;;14.13;12.90;;;9.40;54.80;;;;;;20610;6812;311516;-76
2023/04/20 10:34:33;;;;;;;16.27;14.77;;;9.40;55.20;;;;;;20615;6812;277599;-76
2023/04/20 10:37:09;;;;;;;15.43;14.02;;;9.70;55.80;;;;;;20618;6812;344038;-76
2023/04/20 10:39:36;;;;;;;14.93;13.87;;;9.90;54.80;;;;;;20587;6812;335550;-76
2023/04/20 10:42:00;;;;;;;46.10;41.37;;;10.10;53.80;;;;;;20606;6812;277528;-77
2023/04/20 10:44:26;;;;;;;12.40;11.30;;;10.20;53.60;;;;;;20801;6812;118469;-76
2023/04/20 10:46:52;;;;;;;12.93;11.77;;;10.00;53.90;;;;;;20791;6812;117396;-77
2023/04/20 10:49:18;;;;;;;12.70;11.50;;;9.60;55.60;;;;;;20825;6812;121402;-78
2023/04/20 10:51:47;;;;;;;14.48;13.32;;;9.40;56.60;;;;;;20592;6812;277610;-76
2023/04/20 10:54:12;;;;;;;11.50;10.63;;;9.40;57.00;;;;;;20797;6812;117786;-77
2023/04/20 10:56:41;;;;;;;10.18;9.38;;;9.40;56.90;;;;;;20831;6810;117128;-74
2023/04/20 10:59:08;;;;;;;10.70;9.90;;;9.20;57.70;;;;;;20820;6811;120689;-79
2023/04/20 11:01:33;;;;;;;11.23;10.40;;;8.90;57.50;;;;;;20801;6812;117588;-75
2023/04/20 11:03:59;;;;;;;12.60;11.70;;;8.80;58.20;;;;;;20607;6812;295550;-76
2023/04/20 11:06:24;;;;;;;10.37;9.63;;;8.90;58.70;;;;;;20834;6812;116989;-74
2023/04/20 11:08:51;;;;;;;12.73;11.73;;;8.90;58.40;;;;;;20605;6812;318596;-78
2023/04/20 11:11:17;;;;;;;10.40;9.50;;;9.10;58.40;;;;;;20823;6812;117120;-78
2023/04/20 11:13:42;;;;;;;11.95;11.15;;;9.10;58.30;;;;;;20569;6812;277031;-78
2023/04/20 11:16:08;;;;;;;11.35;10.45;;;9.30;58.40;;;;;;20615;6812;300858;-77
2023/04/20 11:18:34;;;;;;;11.37;10.67;;;9.70;58.00;;;;;;20605;6812;309263;-76
2023/04/20 11:20:59;;;;;;;9.98;9.18;;;10.00;56.70;;;;;;20831;6812;124601;-77
2023/04/20 11:23:26;;;;;;;10.10;9.50;;;10.10;57.00;;;;;;20614;6812;277032;-76
2023/04/20 11:25:55;;;;;;;8.63;8.13;;;10.30;56.50;;;;;;20723;6812;117783;-75
2023/04/20 11:28:20;;;;;;;7.63;7.13;;;10.30;56.70;;;;;;20793;6812;117028;-74
2023/04/20 11:30:46;;;;;;;8.02;7.62;;;10.20;57.00;;;;;;20608;6812;306811;-75
2023/04/20 11:33:12;;;;;;;6.57;6.28;;;10.40;56.30;;;;;;20823;6812;118142;-76
2023/04/20 11:35:38;;;;;;;7.00;6.60;;;10.30;56.20;;;;;;20800;6812;123512;-74
2023/04/20 11:38:03;;;;;;;7.30;6.90;;;10.20;56.20;;;;;;20575;6812;283134;-71
2023/04/20 11:40:29;;;;;;;10.30;9.40;;;10.30;54.80;;;;;;20826;6812;117039;-73
2023/04/20 11:42:55;;;;;;;6.60;6.20;;;10.20;54.90;;;;;;20824;6812;117279;-74
2023/04/20 11:45:20;;;;;;;6.90;6.40;;;10.00;55.20;;;;;;20621;6812;341188;-74
2023/04/20 11:47:47;;;;;;;6.53;6.22;;;10.10;54.60;;;;;;20607;6812;276250;-74
2023/04/20 11:50:11;;;;;;;5.87;5.57;;;10.40;54.10;;;;;;20818;6812;117237;-74
2023/04/20 11:52:38;;;;;;;5.40;5.10;;;10.30;54.10;;;;;;20808;6812;116981;-74
2023/04/20 11:55:04;;;;;;;5.37;5.07;;;10.10;54.60;;;;;;20825;6812;117079;-72
2023/04/20 11:57:30;;;;;;;6.77;6.27;;;9.90;55.90;;;;;;20615;6812;306347;-76
2023/04/20 11:59:56;;;;;;;6.80;6.40;;;10.00;54.50;;;;;;20590;6812;308456;-74
2023/04/20 12:02:22;;;;;;;5.70;5.30;;;10.30;53.80;;;;;;20831;6812;117205;-72
2023/04/20 12:08:12;;;;;;;5.60;5.30;;;10.30;53.30;;;;;;20816;6811;120242;-73
2023/04/20 12:10:39;;;;;;;6.78;6.28;;;10.20;53.70;;;;;;20615;6811;307180;-72
2023/04/20 12:13:04;;;;;;;6.00;5.70;;;10.20;53.20;;;;;;20818;6812;118131;-74
2023/04/20 12:15:29;;;;;;;6.35;6.05;;;10.20;53.60;;;;;;20564;6812;335862;-73
2023/04/20 12:17:55;;;;;;;5.60;5.30;;;10.20;52.90;;;;;;20783;6812;117586;-73
2023/04/20 12:20:20;;;;;;;5.40;5.10;;;10.20;53.40;;;;;;20825;6812;122415;-75
2023/04/20 12:22:46;;;;;;;5.57;5.18;;;10.00;53.70;;;;;;20821;6812;118010;-73
2023/04/20 12:25:12;;;;;;;6.03;5.72;;;9.90;54.50;;;;;;20612;6812;310846;-73
2023/04/20 12:27:38;;;;;;;5.87;5.47;;;9.90;54.50;;;;;;20799;6812;117021;-74
2023/04/20 12:30:04;;;;;;;4.63;4.40;;;9.90;54.80;;;;;;20840;6812;117490;-73
2023/04/20 12:32:29;;;;;;;5.27;4.87;;;9.70;55.20;;;;;;20832;6812;117680;-74
2023/04/20 12:34:55;;;;;;;4.50;4.30;;;9.50;55.60;;;;;;20840;6812;117486;-73
2023/04/20 12:37:20;;;;;;;5.25;4.85;;;9.30;56.00;;;;;;20829;6812;116944;-74
2023/04/20 12:39:47;;;;;;;6.07;5.68;;;9.30;57.50;;;;;;20589;6812;335933;-73
2023/04/20 12:42:14;;;;;;;5.63;5.33;;;9.30;57.00;;;;;;20824;6812;119784;-74